sensor_id;sensor_type;location;lat;lon;timestamp;P1;durP1;ratioP1;P2;durP2;ratioP2
11287;SDS011;5700;50.996;7.044;2023-03-01T00:02:26;8.40;;;4.45;;
11287;SDS011;5700;50.996;7.044;2023-03-01T00:05:27;9.02;;;4.55;;
11287;SDS011;5700;50.996;7.044;2023-03-01T00:08:29;6.03;;;3.50;;
11287;SDS011;5700;50.996;7.044;2023-03-01T00:11:32;10.45;;;4.22;;
11287;SDS011;5700;50.996;7.044;2023-03-01T00:14:34;9.40;;;4.75;;
11287;SDS011;5700;50.996;7.044;2023-03-01T00:17:37;9.55;;;4.10;;
11287;SDS011;5700;50.996;7.044;2023-03-01T00:20:39;9.57;;;4.22;;
11287;SDS011;5700;50.996;7.044;2023-03-01T00:23:40;9.55;;;4.30;;
11287;SDS011;5700;50.996;7.044;2023-03-01T00:26:42;7.60;;;4.32;;
11287;SDS011;5700;50.996;7.044;2023-03-01T00:29:43;6.32;;;3.70;;
11287;SDS011;5700;50.996;7.044;2023-03-01T00:32:46;8.98;;;3.97;;
11287;SDS011;5700;50.996;7.044;2023-03-01T00:35:47;10.38;;;4.32;;
11287;SDS011;5700;50.996;7.044;2023-03-01T00:38:49;7.05;;;3.22;;
11287;SDS011;5700;50.996;7.044;2023-03-01T00:41:50;10.10;;;4.22;;
11287;SDS011;5700;50.996;7.044;2023-03-01T00:44:52;6.10;;;3.17;;
11287;SDS011;5700;50.996;7.044;2023-03-01T00:47:54;8.80;;;4.05;;
11287;SDS011;5700;50.996;7.044;2023-03-01T00:50:55;7.22;;;3.75;;
11287;SDS011;5700;50.996;7.044;2023-03-01T00:53:59;11.07;;;4.22;;
11287;SDS011;5700;50.996;7.044;2023-03-01T00:57:01;6.75;;;3.22;;
11287;SDS011;5700;50.996;7.044;2023-03-01T01:00:03;9.63;;;3.75;;
11287;SDS011;5700;50.996;7.044;2023-03-01T01:03:06;6.00;;;3.33;;
11287;SDS011;5700;50.996;7.044;2023-03-01T01:06:12;7.30;;;3.58;;
11287;SDS011;5700;50.996;7.044;2023-03-01T01:09:15;7.35;;;4.13;;
11287;SDS011;5700;50.996;7.044;2023-03-01T01:12:18;7.22;;;3.95;;
11287;SDS011;5700;50.996;7.044;2023-03-01T01:15:19;9.35;;;4.38;;
11287;SDS011;5700;50.996;7.044;2023-03-01T01:18:22;10.13;;;4.22;;
11287;SDS011;5700;50.996;7.044;2023-03-01T01:21:23;11.40;;;4.63;;
11287;SDS011;5700;50.996;7.044;2023-03-01T01:24:26;11.45;;;4.45;;
11287;SDS011;5700;50.996;7.044;2023-03-01T01:27:27;8.73;;;4.03;;
11287;SDS011;5700;50.996;7.044;2023-03-01T01:30:28;8.77;;;3.88;;
11287;SDS011;5700;50.996;7.044;2023-03-01T01:33:31;8.25;;;4.20;;
11287;SDS011;5700;50.996;7.044;2023-03-01T01:36:33;9.77;;;4.15;;
11287;SDS011;5700;50.996;7.044;2023-03-01T01:39:35;7.90;;;3.88;;
11287;SDS011;5700;50.996;7.044;2023-03-01T01:42:36;9.13;;;4.60;;
11287;SDS011;5700;50.996;7.044;2023-03-01T01:45:38;7.97;;;4.50;;
11287;SDS011;5700;50.996;7.044;2023-03-01T01:48:41;11.25;;;4.47;;
11287;SDS011;5700;50.996;7.044;2023-03-01T01:51:45;8.48;;;3.70;;
11287;SDS011;5700;50.996;7.044;2023-03-01T01:54:50;8.80;;;4.60;;
11287;SDS011;5700;50.996;7.044;2023-03-01T01:57:53;11.00;;;4.18;;
11287;SDS011;5700;50.996;7.044;2023-03-01T02:00:55;6.22;;;3.55;;
11287;SDS011;5700;50.996;7.044;2023-03-01T02:03:58;7.72;;;3.95;;
11287;SDS011;5700;50.996;7.044;2023-03-01T02:07:01;7.85;;;4.25;;
11287;SDS011;5700;50.996;7.044;2023-03-01T02:10:05;7.80;;;3.83;;
11287;SDS011;5700;50.996;7.044;2023-03-01T02:13:07;8.00;;;3.83;;
11287;SDS011;5700;50.996;7.044;2023-03-01T02:16:08;8.10;;;4.35;;
11287;SDS011;5700;50.996;7.044;2023-03-01T02:19:13;9.07;;;4.03;;
11287;SDS011;5700;50.996;7.044;2023-03-01T02:22:20;6.78;;;3.97;;
11287;SDS011;5700;50.996;7.044;2023-03-01T02:25:27;8.57;;;3.58;;
11287;SDS011;5700;50.996;7.044;2023-03-01T02:28:33;9.73;;;4.40;;
11287;SDS011;5700;50.996;7.044;2023-03-01T02:31:36;8.23;;;3.88;;
11287;SDS011;5700;50.996;7.044;2023-03-01T02:34:44;12.00;;;4.45;;
11287;SDS011;5700;50.996;7.044;2023-03-01T02:37:46;9.25;;;4.15;;
11287;SDS011;5700;50.996;7.044;2023-03-01T02:40:48;10.82;;;4.32;;
11287;SDS011;5700;50.996;7.044;2023-03-01T02:43:52;8.43;;;4.38;;
11287;SDS011;5700;50.996;7.044;2023-03-01T02:46:55;10.25;;;4.75;;
11287;SDS011;5700;50.996;7.044;2023-03-01T02:49:57;9.05;;;4.18;;
11287;SDS011;5700;50.996;7.044;2023-03-01T02:53:00;8.10;;;4.25;;
11287;SDS011;5700;50.996;7.044;2023-03-01T02:56:03;9.85;;;5.55;;
11287;SDS011;5700;50.996;7.044;2023-03-01T02:59:06;9.95;;;4.90;;
11287;SDS011;5700;50.996;7.044;2023-03-01T03:02:07;9.05;;;5.15;;
11287;SDS011;5700;50.996;7.044;2023-03-01T03:05:21;10.32;;;4.90;;
11287;SDS011;5700;50.996;7.044;2023-03-01T03:08:24;8.82;;;4.28;;
11287;SDS011;5700;50.996;7.044;2023-03-01T03:11:25;8.75;;;4.43;;
11287;SDS011;5700;50.996;7.044;2023-03-01T03:14:28;12.05;;;5.22;;
11287;SDS011;5700;50.996;7.044;2023-03-01T03:17:29;7.53;;;4.35;;
11287;SDS011;5700;50.996;7.044;2023-03-01T03:20:31;11.20;;;5.00;;
11287;SDS011;5700;50.996;7.044;2023-03-01T03:23:32;10.27;;;4.68;;
11287;SDS011;5700;50.996;7.044;2023-03-01T03:26:34;9.00;;;4.05;;
11287;SDS011;5700;50.996;7.044;2023-03-01T03:29:37;8.50;;;4.30;;
11287;SDS011;5700;50.996;7.044;2023-03-01T03:32:38;9.98;;;4.45;;
11287;SDS011;5700;50.996;7.044;2023-03-01T03:35:41;10.52;;;4.55;;
11287;SDS011;5700;50.996;7.044;2023-03-01T03:38:43;8.10;;;4.65;;
11287;SDS011;5700;50.996;7.044;2023-03-01T03:41:45;10.55;;;4.15;;
11287;SDS011;5700;50.996;7.044;2023-03-01T03:44:48;7.82;;;4.25;;
11287;SDS011;5700;50.996;7.044;2023-03-01T03:47:49;9.32;;;5.15;;
11287;SDS011;5700;50.996;7.044;2023-03-01T03:50:51;9.30;;;4.30;;
11287;SDS011;5700;50.996;7.044;2023-03-01T03:53:53;10.05;;;4.63;;
11287;SDS011;5700;50.996;7.044;2023-03-01T03:56:55;11.02;;;4.93;;
11287;SDS011;5700;50.996;7.044;2023-03-01T03:59:57;10.32;;;4.85;;
11287;SDS011;5700;50.996;7.044;2023-03-01T04:02:59;9.88;;;4.38;;
11287;SDS011;5700;50.996;7.044;2023-03-01T04:06:01;9.60;;;4.38;;
11287;SDS011;5700;50.996;7.044;2023-03-01T04:09:03;10.05;;;4.82;;
11287;SDS011;5700;50.996;7.044;2023-03-01T04:12:05;11.65;;;5.05;;
11287;SDS011;5700;50.996;7.044;2023-03-01T04:15:08;9.82;;;4.97;;
11287;SDS011;5700;50.996;7.044;2023-03-01T04:18:14;11.80;;;4.38;;
11287;SDS011;5700;50.996;7.044;2023-03-01T04:21:16;8.52;;;4.35;;
11287;SDS011;5700;50.996;7.044;2023-03-01T04:24:17;11.73;;;5.15;;
11287;SDS011;5700;50.996;7.044;2023-03-01T04:27:19;9.40;;;4.50;;
11287;SDS011;5700;50.996;7.044;2023-03-01T04:30:21;14.65;;;5.53;;
11287;SDS011;5700;50.996;7.044;2023-03-01T04:33:25;7.57;;;4.13;;
11287;SDS011;5700;50.996;7.044;2023-03-01T04:36:27;9.70;;;4.55;;
11287;SDS011;5700;50.996;7.044;2023-03-01T04:39:29;8.55;;;4.50;;
11287;SDS011;5700;50.996;7.044;2023-03-01T04:42:30;8.13;;;4.40;;
11287;SDS011;5700;50.996;7.044;2023-03-01T04:45:34;13.27;;;4.90;;
11287;SDS011;5700;50.996;7.044;2023-03-01T04:48:35;10.45;;;5.10;;
11287;SDS011;5700;50.996;7.044;2023-03-01T04:51:37;9.52;;;4.55;;
11287;SDS011;5700;50.996;7.044;2023-03-01T04:54:38;9.15;;;4.78;;
11287;SDS011;5700;50.996;7.044;2023-03-01T04:57:40;11.13;;;5.20;;
11287;SDS011;5700;50.996;7.044;2023-03-01T05:00:43;7.80;;;4.63;;
11287;SDS011;5700;50.996;7.044;2023-03-01T05:03:45;11.02;;;5.18;;
11287;SDS011;5700;50.996;7.044;2023-03-01T05:06:47;8.77;;;4.50;;
11287;SDS011;5700;50.996;7.044;2023-03-01T05:09:48;10.10;;;4.75;;
11287;SDS011;5700;50.996;7.044;2023-03-01T05:12:50;9.65;;;4.88;;
11287;SDS011;5700;50.996;7.044;2023-03-01T05:15:55;10.52;;;5.05;;
11287;SDS011;5700;50.996;7.044;2023-03-01T05:18:57;8.82;;;4.55;;
11287;SDS011;5700;50.996;7.044;2023-03-01T05:21:59;9.43;;;4.75;;
11287;SDS011;5700;50.996;7.044;2023-03-01T05:25:05;12.48;;;5.40;;
11287;SDS011;5700;50.996;7.044;2023-03-01T05:28:09;11.88;;;5.40;;
11287;SDS011;5700;50.996;7.044;2023-03-01T05:31:13;9.15;;;4.70;;
11287;SDS011;5700;50.996;7.044;2023-03-01T05:34:14;13.98;;;5.85;;
11287;SDS011;5700;50.996;7.044;2023-03-01T05:37:16;8.55;;;4.43;;
11287;SDS011;5700;50.996;7.044;2023-03-01T05:40:18;11.40;;;5.00;;
11287;SDS011;5700;50.996;7.044;2023-03-01T05:43:20;15.98;;;6.18;;
11287;SDS011;5700;50.996;7.044;2023-03-01T05:46:23;8.82;;;5.05;;
11287;SDS011;5700;50.996;7.044;2023-03-01T05:49:25;11.52;;;5.57;;
11287;SDS011;5700;50.996;7.044;2023-03-01T05:52:26;9.82;;;4.72;;
11287;SDS011;5700;50.996;7.044;2023-03-01T05:55:28;13.50;;;5.28;;
11287;SDS011;5700;50.996;7.044;2023-03-01T05:58:30;12.50;;;5.35;;
11287;SDS011;5700;50.996;7.044;2023-03-01T06:01:33;11.88;;;5.32;;
11287;SDS011;5700;50.996;7.044;2023-03-01T06:04:35;10.07;;;5.50;;
11287;SDS011;5700;50.996;7.044;2023-03-01T06:07:36;12.55;;;5.85;;
11287;SDS011;5700;50.996;7.044;2023-03-01T06:10:38;11.65;;;5.20;;
11287;SDS011;5700;50.996;7.044;2023-03-01T06:13:40;12.73;;;5.05;;
11287;SDS011;5700;50.996;7.044;2023-03-01T06:16:43;13.48;;;5.93;;
11287;SDS011;5700;50.996;7.044;2023-03-01T06:19:44;14.50;;;6.03;;
11287;SDS011;5700;50.996;7.044;2023-03-01T06:22:47;15.77;;;5.93;;
11287;SDS011;5700;50.996;7.044;2023-03-01T06:25:49;14.23;;;6.75;;
11287;SDS011;5700;50.996;7.044;2023-03-01T06:28:52;14.05;;;5.70;;
11287;SDS011;5700;50.996;7.044;2023-03-01T06:31:55;11.70;;;5.47;;
11287;SDS011;5700;50.996;7.044;2023-03-01T06:34:56;12.48;;;5.28;;
11287;SDS011;5700;50.996;7.044;2023-03-01T06:37:58;10.07;;;5.75;;
11287;SDS011;5700;50.996;7.044;2023-03-01T06:41:01;12.93;;;6.32;;
11287;SDS011;5700;50.996;7.044;2023-03-01T06:44:02;12.30;;;6.00;;
11287;SDS011;5700;50.996;7.044;2023-03-01T06:47:05;11.20;;;6.05;;
11287;SDS011;5700;50.996;7.044;2023-03-01T06:50:06;14.40;;;6.78;;
11287;SDS011;5700;50.996;7.044;2023-03-01T06:53:09;12.18;;;5.95;;
11287;SDS011;5700;50.996;7.044;2023-03-01T06:56:10;12.85;;;7.05;;
11287;SDS011;5700;50.996;7.044;2023-03-01T06:59:11;17.52;;;7.07;;
11287;SDS011;5700;50.996;7.044;2023-03-01T07:02:14;15.35;;;6.72;;
11287;SDS011;5700;50.996;7.044;2023-03-01T07:05:16;13.30;;;6.68;;
11287;SDS011;5700;50.996;7.044;2023-03-01T07:08:18;16.33;;;6.63;;
11287;SDS011;5700;50.996;7.044;2023-03-01T07:11:19;12.05;;;6.55;;
11287;SDS011;5700;50.996;7.044;2023-03-01T07:14:21;13.82;;;7.15;;
11287;SDS011;5700;50.996;7.044;2023-03-01T07:17:25;14.10;;;6.82;;
11287;SDS011;5700;50.996;7.044;2023-03-01T07:20:27;15.93;;;8.15;;
11287;SDS011;5700;50.996;7.044;2023-03-01T07:23:28;19.15;;;8.57;;
11287;SDS011;5700;50.996;7.044;2023-03-01T07:26:30;16.50;;;7.88;;
11287;SDS011;5700;50.996;7.044;2023-03-01T07:29:31;15.00;;;7.80;;
11287;SDS011;5700;50.996;7.044;2023-03-01T07:32:34;15.18;;;7.55;;
11287;SDS011;5700;50.996;7.044;2023-03-01T07:35:35;17.67;;;8.23;;
11287;SDS011;5700;50.996;7.044;2023-03-01T07:38:36;21.60;;;8.57;;
11287;SDS011;5700;50.996;7.044;2023-03-01T07:41:38;18.70;;;9.32;;
11287;SDS011;5700;50.996;7.044;2023-03-01T07:44:39;22.17;;;9.40;;
11287;SDS011;5700;50.996;7.044;2023-03-01T07:47:42;22.65;;;9.50;;
11287;SDS011;5700;50.996;7.044;2023-03-01T07:50:43;16.95;;;8.75;;
11287;SDS011;5700;50.996;7.044;2023-03-01T07:53:45;19.50;;;8.98;;
11287;SDS011;5700;50.996;7.044;2023-03-01T07:56:47;22.63;;;9.20;;
11287;SDS011;5700;50.996;7.044;2023-03-01T07:59:48;21.02;;;9.98;;
11287;SDS011;5700;50.996;7.044;2023-03-01T08:02:51;19.73;;;9.35;;
11287;SDS011;5700;50.996;7.044;2023-03-01T08:05:52;20.30;;;9.23;;
11287;SDS011;5700;50.996;7.044;2023-03-01T08:08:54;23.77;;;10.13;;
11287;SDS011;5700;50.996;7.044;2023-03-01T08:11:56;28.45;;;11.05;;
11287;SDS011;5700;50.996;7.044;2023-03-01T08:14:59;22.40;;;10.38;;
11287;SDS011;5700;50.996;7.044;2023-03-01T08:18:02;22.95;;;10.18;;
11287;SDS011;5700;50.996;7.044;2023-03-01T08:21:03;24.00;;;9.85;;
11287;SDS011;5700;50.996;7.044;2023-03-01T08:24:06;19.90;;;10.00;;
11287;SDS011;5700;50.996;7.044;2023-03-01T08:27:10;18.70;;;9.27;;
11287;SDS011;5700;50.996;7.044;2023-03-01T08:30:12;20.73;;;9.02;;
11287;SDS011;5700;50.996;7.044;2023-03-01T08:33:15;22.10;;;10.55;;
11287;SDS011;5700;50.996;7.044;2023-03-01T08:36:16;18.58;;;8.90;;
11287;SDS011;5700;50.996;7.044;2023-03-01T08:39:20;16.30;;;8.35;;
11287;SDS011;5700;50.996;7.044;2023-03-01T08:42:21;18.23;;;7.80;;
11287;SDS011;5700;50.996;7.044;2023-03-01T08:45:22;15.13;;;7.60;;
11287;SDS011;5700;50.996;7.044;2023-03-01T08:48:25;14.55;;;7.80;;
11287;SDS011;5700;50.996;7.044;2023-03-01T08:51:28;13.38;;;6.43;;
11287;SDS011;5700;50.996;7.044;2023-03-01T08:54:31;13.25;;;6.88;;
11287;SDS011;5700;50.996;7.044;2023-03-01T08:57:33;13.93;;;7.03;;
11287;SDS011;5700;50.996;7.044;2023-03-01T09:00:34;14.43;;;6.65;;
11287;SDS011;5700;50.996;7.044;2023-03-01T09:03:37;12.23;;;6.22;;
11287;SDS011;5700;50.996;7.044;2023-03-01T09:06:39;11.40;;;6.75;;
11287;SDS011;5700;50.996;7.044;2023-03-01T09:09:40;12.85;;;5.07;;
11287;SDS011;5700;50.996;7.044;2023-03-01T09:12:42;10.30;;;5.18;;
11287;SDS011;5700;50.996;7.044;2023-03-01T09:15:43;14.55;;;5.70;;
11287;SDS011;5700;50.996;7.044;2023-03-01T09:18:48;9.70;;;5.63;;
11287;SDS011;5700;50.996;7.044;2023-03-01T09:21:51;10.98;;;5.20;;
11287;SDS011;5700;50.996;7.044;2023-03-01T09:24:53;11.88;;;6.22;;
11287;SDS011;5700;50.996;7.044;2023-03-01T09:27:54;11.63;;;5.38;;
11287;SDS011;5700;50.996;7.044;2023-03-01T09:30:57;12.40;;;5.63;;
11287;SDS011;5700;50.996;7.044;2023-03-01T09:34:00;10.70;;;5.80;;
11287;SDS011;5700;50.996;7.044;2023-03-01T09:37:01;12.15;;;6.18;;
11287;SDS011;5700;50.996;7.044;2023-03-01T09:40:03;13.23;;;5.95;;
11287;SDS011;5700;50.996;7.044;2023-03-01T09:43:07;10.77;;;5.47;;
11287;SDS011;5700;50.996;7.044;2023-03-01T09:46:14;9.60;;;5.22;;
11287;SDS011;5700;50.996;7.044;2023-03-01T09:49:18;10.30;;;5.75;;
11287;SDS011;5700;50.996;7.044;2023-03-01T09:52:23;9.70;;;5.57;;
11287;SDS011;5700;50.996;7.044;2023-03-01T09:55:29;9.23;;;5.60;;
11287;SDS011;5700;50.996;7.044;2023-03-01T09:58:36;10.55;;;5.38;;
11287;SDS011;5700;50.996;7.044;2023-03-01T10:01:41;12.25;;;6.03;;
11287;SDS011;5700;50.996;7.044;2023-03-01T10:04:47;10.35;;;5.30;;
11287;SDS011;5700;50.996;7.044;2023-03-01T10:07:52;10.73;;;5.65;;
11287;SDS011;5700;50.996;7.044;2023-03-01T10:10:57;13.07;;;6.18;;
11287;SDS011;5700;50.996;7.044;2023-03-01T10:14:01;12.25;;;5.75;;
11287;SDS011;5700;50.996;7.044;2023-03-01T10:17:06;9.85;;;5.32;;
11287;SDS011;5700;50.996;7.044;2023-03-01T10:20:17;10.98;;;5.70;;
11287;SDS011;5700;50.996;7.044;2023-03-01T10:23:21;11.63;;;6.18;;
11287;SDS011;5700;50.996;7.044;2023-03-01T10:26:35;12.55;;;5.78;;
11287;SDS011;5700;50.996;7.044;2023-03-01T10:29:43;10.50;;;4.93;;
11287;SDS011;5700;50.996;7.044;2023-03-01T10:32:50;10.38;;;5.32;;
11287;SDS011;5700;50.996;7.044;2023-03-01T10:35:53;11.18;;;5.32;;
11287;SDS011;5700;50.996;7.044;2023-03-01T10:38:56;14.98;;;7.50;;
11287;SDS011;5700;50.996;7.044;2023-03-01T10:41:58;11.38;;;5.50;;
11287;SDS011;5700;50.996;7.044;2023-03-01T10:48:24;10.40;;;5.80;;
11287;SDS011;5700;50.996;7.044;2023-03-01T10:51:29;13.57;;;5.97;;
11287;SDS011;5700;50.996;7.044;2023-03-01T10:54:31;12.20;;;5.82;;
11287;SDS011;5700;50.996;7.044;2023-03-01T10:57:34;12.23;;;6.32;;
11287;SDS011;5700;50.996;7.044;2023-03-01T11:00:46;10.95;;;5.85;;
11287;SDS011;5700;50.996;7.044;2023-03-01T11:04:02;9.65;;;4.65;;
11287;SDS011;5700;50.996;7.044;2023-03-01T11:07:10;11.65;;;6.05;;
11287;SDS011;5700;50.996;7.044;2023-03-01T11:10:12;11.15;;;5.10;;
11287;SDS011;5700;50.996;7.044;2023-03-01T11:13:17;10.98;;;4.90;;
11287;SDS011;5700;50.996;7.044;2023-03-01T11:16:24;8.95;;;5.00;;
11287;SDS011;5700;50.996;7.044;2023-03-01T11:19:27;10.50;;;5.32;;
11287;SDS011;5700;50.996;7.044;2023-03-01T11:22:30;10.00;;;5.35;;
11287;SDS011;5700;50.996;7.044;2023-03-01T11:25:34;12.57;;;6.15;;
11287;SDS011;5700;50.996;7.044;2023-03-01T11:28:37;10.32;;;4.88;;
11287;SDS011;5700;50.996;7.044;2023-03-01T11:31:40;11.90;;;5.78;;
11287;SDS011;5700;50.996;7.044;2023-03-01T11:34:43;11.45;;;5.65;;
11287;SDS011;5700;50.996;7.044;2023-03-01T11:37:54;9.13;;;4.70;;
11287;SDS011;5700;50.996;7.044;2023-03-01T11:41:01;10.95;;;5.70;;
11287;SDS011;5700;50.996;7.044;2023-03-01T11:44:10;11.82;;;4.97;;
11287;SDS011;5700;50.996;7.044;2023-03-01T11:47:19;12.07;;;5.72;;
11287;SDS011;5700;50.996;7.044;2023-03-01T11:50:30;11.88;;;5.45;;
11287;SDS011;5700;50.996;7.044;2023-03-01T11:53:45;11.10;;;5.70;;
11287;SDS011;5700;50.996;7.044;2023-03-01T11:56:54;11.85;;;5.82;;
11287;SDS011;5700;50.996;7.044;2023-03-01T11:59:59;12.93;;;5.32;;
11287;SDS011;5700;50.996;7.044;2023-03-01T12:06:28;11.40;;;5.43;;
11287;SDS011;5700;50.996;7.044;2023-03-01T12:09:41;10.68;;;5.72;;
11287;SDS011;5700;50.996;7.044;2023-03-01T12:12:52;10.57;;;5.28;;
11287;SDS011;5700;50.996;7.044;2023-03-01T12:16:04;10.23;;;5.68;;
11287;SDS011;5700;50.996;7.044;2023-03-01T12:19:14;8.70;;;4.65;;
11287;SDS011;5700;50.996;7.044;2023-03-01T12:22:24;11.40;;;5.45;;
11287;SDS011;5700;50.996;7.044;2023-03-01T12:25:33;10.07;;;5.22;;
11287;SDS011;5700;50.996;7.044;2023-03-01T12:28:39;11.75;;;5.10;;
11287;SDS011;5700;50.996;7.044;2023-03-01T12:31:53;10.00;;;4.50;;
11287;SDS011;5700;50.996;7.044;2023-03-01T12:35:21;9.00;;;4.63;;
11287;SDS011;5700;50.996;7.044;2023-03-01T12:38:32;15.07;;;5.13;;
11287;SDS011;5700;50.996;7.044;2023-03-01T12:41:41;10.35;;;5.05;;
11287;SDS011;5700;50.996;7.044;2023-03-01T12:44:49;9.55;;;4.90;;
11287;SDS011;5700;50.996;7.044;2023-03-01T12:48:02;10.25;;;4.22;;
11287;SDS011;5700;50.996;7.044;2023-03-01T12:51:13;11.38;;;5.00;;
11287;SDS011;5700;50.996;7.044;2023-03-01T12:54:16;9.00;;;4.57;;
11287;SDS011;5700;50.996;7.044;2023-03-01T12:57:24;9.43;;;4.70;;
11287;SDS011;5700;50.996;7.044;2023-03-01T13:00:30;8.65;;;4.30;;
11287;SDS011;5700;50.996;7.044;2023-03-01T13:03:38;11.75;;;5.03;;
11287;SDS011;5700;50.996;7.044;2023-03-01T13:06:54;11.00;;;5.15;;
11287;SDS011;5700;50.996;7.044;2023-03-01T13:10:02;8.00;;;4.75;;
11287;SDS011;5700;50.996;7.044;2023-03-01T13:13:14;8.38;;;4.72;;
11287;SDS011;5700;50.996;7.044;2023-03-01T13:16:27;10.32;;;4.95;;
11287;SDS011;5700;50.996;7.044;2023-03-01T13:19:40;10.02;;;4.80;;
11287;SDS011;5700;50.996;7.044;2023-03-01T13:23:01;9.80;;;4.97;;
11287;SDS011;5700;50.996;7.044;2023-03-01T13:26:07;12.57;;;4.90;;
11287;SDS011;5700;50.996;7.044;2023-03-01T13:29:18;11.45;;;4.95;;
11287;SDS011;5700;50.996;7.044;2023-03-01T13:32:27;9.23;;;4.55;;
11287;SDS011;5700;50.996;7.044;2023-03-01T13:35:40;7.72;;;4.32;;
11287;SDS011;5700;50.996;7.044;2023-03-01T13:38:44;10.93;;;5.18;;
11287;SDS011;5700;50.996;7.044;2023-03-01T13:41:49;8.98;;;4.70;;
11287;SDS011;5700;50.996;7.044;2023-03-01T13:44:53;7.85;;;4.43;;
11287;SDS011;5700;50.996;7.044;2023-03-01T13:47:56;10.30;;;4.40;;
11287;SDS011;5700;50.996;7.044;2023-03-01T13:51:00;10.50;;;4.80;;
11287;SDS011;5700;50.996;7.044;2023-03-01T13:54:04;8.93;;;4.55;;
11287;SDS011;5700;50.996;7.044;2023-03-01T13:57:05;10.07;;;5.00;;
11287;SDS011;5700;50.996;7.044;2023-03-01T14:03:28;7.85;;;4.15;;
11287;SDS011;5700;50.996;7.044;2023-03-01T14:06:31;8.52;;;3.67;;
11287;SDS011;5700;50.996;7.044;2023-03-01T14:09:36;9.15;;;4.18;;
11287;SDS011;5700;50.996;7.044;2023-03-01T14:12:41;8.27;;;4.03;;
11287;SDS011;5700;50.996;7.044;2023-03-01T14:15:49;8.48;;;4.18;;
11287;SDS011;5700;50.996;7.044;2023-03-01T14:18:57;7.68;;;3.75;;
11287;SDS011;5700;50.996;7.044;2023-03-01T14:22:11;8.55;;;4.25;;
11287;SDS011;5700;50.996;7.044;2023-03-01T14:25:17;10.93;;;4.35;;
11287;SDS011;5700;50.996;7.044;2023-03-01T14:28:23;9.43;;;4.90;;
11287;SDS011;5700;50.996;7.044;2023-03-01T14:31:32;9.13;;;4.63;;
11287;SDS011;5700;50.996;7.044;2023-03-01T14:34:41;8.52;;;4.47;;
11287;SDS011;5700;50.996;7.044;2023-03-01T14:37:44;11.63;;;5.00;;
11287;SDS011;5700;50.996;7.044;2023-03-01T14:40:45;9.77;;;4.50;;
11287;SDS011;5700;50.996;7.044;2023-03-01T14:43:47;8.23;;;4.60;;
11287;SDS011;5700;50.996;7.044;2023-03-01T14:46:53;9.30;;;4.75;;
11287;SDS011;5700;50.996;7.044;2023-03-01T14:49:57;10.73;;;4.45;;
11287;SDS011;5700;50.996;7.044;2023-03-01T14:53:00;7.72;;;3.95;;
11287;SDS011;5700;50.996;7.044;2023-03-01T14:56:03;8.43;;;4.68;;
11287;SDS011;5700;50.996;7.044;2023-03-01T14:59:07;7.65;;;4.45;;
11287;SDS011;5700;50.996;7.044;2023-03-01T15:02:11;7.47;;;4.10;;
11287;SDS011;5700;50.996;7.044;2023-03-01T15:05:17;8.95;;;4.75;;
11287;SDS011;5700;50.996;7.044;2023-03-01T15:08:24;10.25;;;4.18;;
11287;SDS011;5700;50.996;7.044;2023-03-01T15:11:27;9.02;;;4.57;;
11287;SDS011;5700;50.996;7.044;2023-03-01T15:14:38;7.82;;;4.25;;
11287;SDS011;5700;50.996;7.044;2023-03-01T15:17:42;8.40;;;3.88;;
11287;SDS011;5700;50.996;7.044;2023-03-01T15:20:44;11.52;;;4.70;;
11287;SDS011;5700;50.996;7.044;2023-03-01T15:23:49;10.25;;;4.18;;
11287;SDS011;5700;50.996;7.044;2023-03-01T15:26:56;7.47;;;4.03;;
11287;SDS011;5700;50.996;7.044;2023-03-01T15:30:02;8.55;;;4.60;;
11287;SDS011;5700;50.996;7.044;2023-03-01T15:36:30;12.23;;;4.47;;
11287;SDS011;5700;50.996;7.044;2023-03-01T15:39:38;9.35;;;4.40;;
11287;SDS011;5700;50.996;7.044;2023-03-01T15:42:43;11.10;;;4.47;;
11287;SDS011;5700;50.996;7.044;2023-03-01T15:45:44;8.00;;;3.70;;
11287;SDS011;5700;50.996;7.044;2023-03-01T15:48:59;9.70;;;3.85;;
11287;SDS011;5700;50.996;7.044;2023-03-01T15:52:01;13.07;;;4.60;;
11287;SDS011;5700;50.996;7.044;2023-03-01T15:55:04;8.38;;;4.03;;
11287;SDS011;5700;50.996;7.044;2023-03-01T15:58:14;7.25;;;4.38;;
11287;SDS011;5700;50.996;7.044;2023-03-01T16:01:17;11.02;;;5.22;;
11287;SDS011;5700;50.996;7.044;2023-03-01T16:04:21;7.28;;;3.67;;
11287;SDS011;5700;50.996;7.044;2023-03-01T16:07:22;8.15;;;4.20;;
11287;SDS011;5700;50.996;7.044;2023-03-01T16:10:24;8.15;;;3.90;;
11287;SDS011;5700;50.996;7.044;2023-03-01T16:13:25;10.02;;;3.58;;
11287;SDS011;5700;50.996;7.044;2023-03-01T16:16:28;9.45;;;3.88;;
11287;SDS011;5700;50.996;7.044;2023-03-01T16:19:30;8.75;;;4.10;;
11287;SDS011;5700;50.996;7.044;2023-03-01T16:22:32;8.75;;;3.95;;
11287;SDS011;5700;50.996;7.044;2023-03-01T16:25:34;7.07;;;3.65;;
11287;SDS011;5700;50.996;7.044;2023-03-01T16:28:36;7.40;;;3.97;;
11287;SDS011;5700;50.996;7.044;2023-03-01T16:31:37;7.65;;;3.53;;
11287;SDS011;5700;50.996;7.044;2023-03-01T16:34:40;6.72;;;3.45;;
11287;SDS011;5700;50.996;7.044;2023-03-01T16:37:42;8.65;;;3.25;;
11287;SDS011;5700;50.996;7.044;2023-03-01T16:40:46;7.85;;;3.50;;
11287;SDS011;5700;50.996;7.044;2023-03-01T16:43:49;9.40;;;4.75;;
11287;SDS011;5700;50.996;7.044;2023-03-01T16:46:51;8.63;;;4.22;;
11287;SDS011;5700;50.996;7.044;2023-03-01T16:49:54;7.57;;;3.97;;
11287;SDS011;5700;50.996;7.044;2023-03-01T16:52:55;8.18;;;3.42;;
11287;SDS011;5700;50.996;7.044;2023-03-01T16:55:57;9.07;;;3.58;;
11287;SDS011;5700;50.996;7.044;2023-03-01T16:58:59;10.10;;;3.90;;
11287;SDS011;5700;50.996;7.044;2023-03-01T17:02:00;7.57;;;3.47;;
11287;SDS011;5700;50.996;7.044;2023-03-01T17:05:03;8.13;;;3.90;;
11287;SDS011;5700;50.996;7.044;2023-03-01T17:08:06;6.15;;;3.58;;
11287;SDS011;5700;50.996;7.044;2023-03-01T17:11:08;8.98;;;4.07;;
11287;SDS011;5700;50.996;7.044;2023-03-01T17:14:10;7.15;;;3.45;;
11287;SDS011;5700;50.996;7.044;2023-03-01T17:17:12;7.60;;;3.58;;
11287;SDS011;5700;50.996;7.044;2023-03-01T17:20:14;8.30;;;4.03;;
11287;SDS011;5700;50.996;7.044;2023-03-01T17:23:16;11.88;;;3.90;;
11287;SDS011;5700;50.996;7.044;2023-03-01T17:26:17;7.65;;;3.65;;
11287;SDS011;5700;50.996;7.044;2023-03-01T17:29:18;7.90;;;3.30;;
11287;SDS011;5700;50.996;7.044;2023-03-01T17:32:20;8.65;;;3.72;;
11287;SDS011;5700;50.996;7.044;2023-03-01T17:35:23;6.57;;;3.45;;
11287;SDS011;5700;50.996;7.044;2023-03-01T17:38:24;8.23;;;4.00;;
11287;SDS011;5700;50.996;7.044;2023-03-01T17:41:26;7.18;;;3.83;;
11287;SDS011;5700;50.996;7.044;2023-03-01T17:44:27;9.85;;;3.88;;
11287;SDS011;5700;50.996;7.044;2023-03-01T17:47:29;9.25;;;3.95;;
11287;SDS011;5700;50.996;7.044;2023-03-01T17:50:32;8.35;;;3.65;;
11287;SDS011;5700;50.996;7.044;2023-03-01T17:53:33;7.22;;;3.40;;
11287;SDS011;5700;50.996;7.044;2023-03-01T17:56:34;11.52;;;3.97;;
11287;SDS011;5700;50.996;7.044;2023-03-01T17:59:37;10.77;;;4.05;;
11287;SDS011;5700;50.996;7.044;2023-03-01T18:02:39;9.20;;;3.55;;
11287;SDS011;5700;50.996;7.044;2023-03-01T18:05:41;10.07;;;3.95;;
11287;SDS011;5700;50.996;7.044;2023-03-01T18:08:43;7.93;;;4.30;;
11287;SDS011;5700;50.996;7.044;2023-03-01T18:11:45;7.75;;;3.78;;
11287;SDS011;5700;50.996;7.044;2023-03-01T18:14:47;9.35;;;3.97;;
11287;SDS011;5700;50.996;7.044;2023-03-01T18:17:52;10.15;;;4.25;;
11287;SDS011;5700;50.996;7.044;2023-03-01T18:20:55;12.10;;;3.88;;
11287;SDS011;5700;50.996;7.044;2023-03-01T18:23:57;11.57;;;4.28;;
11287;SDS011;5700;50.996;7.044;2023-03-01T18:26:59;7.63;;;3.92;;
11287;SDS011;5700;50.996;7.044;2023-03-01T18:30:01;9.18;;;4.45;;
11287;SDS011;5700;50.996;7.044;2023-03-01T18:33:02;8.18;;;4.22;;
11287;SDS011;5700;50.996;7.044;2023-03-01T18:36:12;8.38;;;4.10;;
11287;SDS011;5700;50.996;7.044;2023-03-01T18:39:17;7.03;;;3.70;;
11287;SDS011;5700;50.996;7.044;2023-03-01T18:42:19;8.38;;;3.58;;
11287;SDS011;5700;50.996;7.044;2023-03-01T18:45:21;7.60;;;3.53;;
11287;SDS011;5700;50.996;7.044;2023-03-01T18:48:23;8.98;;;3.75;;